Time;durP1;ratioP1;P1;durP2;ratioP2;P2;SDS_P1;SDS_P2;PMS_P1;PMS_P2;Temp;Humidity;BMP_temperature;BMP_pressure;BME280_temperature;BME280_humidity;BME280_pressure;Samples;Min_cycle;Max_cycle;Signal;HPM_P1;HPM_P2
2022/01/16 00:04:42;;;;;;;58.07;18.87;;;;;;;;;;5020414;28;20028;-70
2022/01/16 00:07:08;;;;;;;47.30;17.00;;;;;;;;;;5023647;28;20123;-70
2022/01/16 00:09:37;;;;;;;55.97;19.43;;;;;;;;;;5020209;28;20494;-71
2022/01/16 00:12:05;;;;;;;55.43;18.50;;;;;;;;;;5025066;28;20038;-70
2022/01/16 00:14:31;;;;;;;50.97;18.37;;;;;;;;;;5025524;28;20100;-70
2022/01/16 00:16:57;;;;;;;58.27;19.60;;;;;;;;;;5023875;28;20445;-70
2022/01/16 00:19:22;;;;;;;43.43;16.77;;;;;;;;;;5017254;28;20025;-72
2022/01/16 00:21:47;;;;;;;48.87;19.17;;;;;;;;;;5021755;28;20029;-70
2022/01/16 00:24:12;;;;;;;46.67;17.97;;;;;;;;;;5021127;28;20068;-69
2022/01/16 00:26:38;;;;;;;67.77;19.97;;;;;;;;;;5021936;28;20049;-70
2022/01/16 00:29:07;;;;;;;54.17;19.93;;;;;;;;;;5027107;28;20362;-70
2022/01/16 00:31:32;;;;;;;69.57;21.13;;;;;;;;;;5026936;28;20037;-70
2022/01/16 00:33:57;;;;;;;55.13;18.80;;;;;;;;;;5023614;28;20080;-71
2022/01/16 00:36:22;;;;;;;46.97;18.42;;;;;;;;;;5027726;28;20045;-69
2022/01/16 00:38:48;;;;;;;46.00;17.90;;;;;;;;;;5019890;28;20401;-72
2022/01/16 00:41:15;;;;;;;47.90;17.73;;;;;;;;;;5022164;28;20083;-70
2022/01/16 00:43:41;;;;;;;50.78;19.85;;;;;;;;;;5020491;28;20061;-71
2022/01/16 00:46:06;;;;;;;48.35;18.35;;;;;;;;;;5027712;28;20033;-71
2022/01/16 00:48:32;;;;;;;47.00;17.47;;;;;;;;;;5027596;28;20038;-69
2022/01/16 00:50:58;;;;;;;52.58;18.17;;;;;;;;;;5027204;28;20132;-69
2022/01/16 00:53:23;;;;;;;44.03;17.27;;;;;;;;;;5027911;28;20136;-71
2022/01/16 00:55:48;;;;;;;59.47;20.35;;;;;;;;;;5025774;28;20396;-70
2022/01/16 00:58:13;;;;;;;49.30;19.55;;;;;;;;;;5019856;28;20108;-70
2022/01/16 01:00:38;;;;;;;50.22;19.17;;;;;;;;;;5016743;28;20029;-69
2022/01/16 01:03:05;;;;;;;53.50;20.02;;;;;;;;;;5023274;28;20045;-70
2022/01/16 01:05:31;;;;;;;46.00;17.55;;;;;;;;;;5024866;28;20070;-69
2022/01/16 01:07:56;;;;;;;45.58;18.05;;;;;;;;;;5024303;28;20087;-69
2022/01/16 01:10:29;;;;;;;48.45;19.13;;;;;;;;;;5024321;28;20033;-70
2022/01/16 01:13:06;;;;;;;44.88;18.08;;;;;;;;;;5030252;28;20076;-71
2022/01/16 01:15:40;;;;;;;57.40;18.25;;;;;;;;;;5026269;28;20108;-70
2022/01/16 01:18:05;;;;;;;47.25;18.25;;;;;;;;;;5024463;28;20029;-70
2022/01/16 01:20:31;;;;;;;56.35;19.70;;;;;;;;;;5025063;28;20075;-70
2022/01/16 01:22:56;;;;;;;51.15;18.92;;;;;;;;;;5034661;28;20048;-69
2022/01/16 01:25:22;;;;;;;41.30;16.17;;;;;;;;;;5030723;28;20021;-70
2022/01/16 01:27:47;;;;;;;59.80;18.17;;;;;;;;;;5027324;28;20035;-70
2022/01/16 01:30:15;;;;;;;46.27;17.67;;;;;;;;;;5031413;28;20076;-70
2022/01/16 01:32:40;;;;;;;55.47;17.63;;;;;;;;;;5027193;28;20086;-71
2022/01/16 01:35:07;;;;;;;42.40;16.88;;;;;;;;;;5025283;28;20116;-70
2022/01/16 01:37:32;;;;;;;46.72;16.17;;;;;;;;;;5024624;28;20075;-70
2022/01/16 01:39:57;;;;;;;44.15;16.77;;;;;;;;;;5027616;28;20037;-71
2022/01/16 01:42:30;;;;;;;49.83;18.35;;;;;;;;;;5030046;28;20503;-70
2022/01/16 01:53:07;;;;;;;55.07;20.17;;;;;;;;;;5029939;28;20521;-70
2022/01/16 01:55:33;;;;;;;55.17;19.27;;;;;;;;;;5023271;28;20025;-70
2022/01/16 01:57:58;;;;;;;47.83;18.57;;;;;;;;;;5028387;28;20025;-69
2022/01/16 02:00:23;;;;;;;44.83;17.27;;;;;;;;;;5018485;28;20428;-70
2022/01/16 02:03:13;;;;;;;45.73;17.70;;;;;;;;;;5028140;28;20025;-70
2022/01/16 02:05:39;;;;;;;47.00;16.95;;;;;;;;;;5020949;28;20055;-71
2022/01/16 02:08:05;;;;;;;50.20;18.15;;;;;;;;;;5025066;28;20037;-71
2022/01/16 02:10:30;;;;;;;54.20;18.80;;;;;;;;;;5025954;28;20025;-69
2022/01/16 02:13:00;;;;;;;47.07;17.97;;;;;;;;;;5024759;28;20021;-70
2022/01/16 02:31:37;;;;;;;51.80;18.30;;;;;;;;;;5021552;28;20129;-70
2022/01/16 02:36:49;;;;;;;61.43;17.60;;;;;;;;;;5028718;28;20526;-70
2022/01/16 02:39:16;;;;;;;55.80;19.63;;;;;;;;;;5021321;28;20036;-71
2022/01/16 02:41:42;;;;;;;54.03;18.80;;;;;;;;;;5023237;28;20281;-70
2022/01/16 02:46:57;;;;;;;53.95;19.23;;;;;;;;;;5003554;28;20057;-69
2022/01/16 02:49:24;;;;;;;56.67;19.00;;;;;;;;;;5005264;28;20133;-69
2022/01/16 02:51:51;;;;;;;50.83;20.10;;;;;;;;;;5003316;28;20034;-70
2022/01/16 02:54:16;;;;;;;55.55;18.80;;;;;;;;;;5006443;28;20385;-70
2022/01/16 02:56:43;;;;;;;57.13;18.85;;;;;;;;;;5005870;28;20022;-70
2022/01/16 02:59:11;;;;;;;50.63;18.07;;;;;;;;;;4996965;28;20541;-69
2022/01/16 03:01:36;;;;;;;50.22;17.83;;;;;;;;;;5004056;28;20069;-69
2022/01/16 03:04:02;;;;;;;50.67;18.43;;;;;;;;;;4996242;28;20034;-71
2022/01/16 03:06:28;;;;;;;54.53;19.43;;;;;;;;;;5002093;28;20461;-70
2022/01/16 03:08:53;;;;;;;55.23;19.47;;;;;;;;;;4999095;28;20485;-71
2022/01/16 03:11:34;;;;;;;62.53;19.17;;;;;;;;;;4998407;28;20166;-70
2022/01/16 03:13:59;;;;;;;50.40;18.77;;;;;;;;;;4995016;28;20241;-70
2022/01/16 03:16:24;;;;;;;45.93;17.97;;;;;;;;;;4997931;28;20137;-69
2022/01/16 03:21:54;;;;;;;49.80;19.17;;;;;;;;;;5003952;28;20044;-69
2022/01/16 03:24:21;;;;;;;51.17;18.33;;;;;;;;;;5010588;28;20045;-70
2022/01/16 03:26:46;;;;;;;56.83;19.83;;;;;;;;;;5018504;28;20033;-69
2022/01/16 03:29:11;;;;;;;54.20;19.60;;;;;;;;;;5024636;28;20037;-69
2022/01/16 03:31:36;;;;;;;72.10;20.85;;;;;;;;;;5019601;28;20091;-70
2022/01/16 03:34:02;;;;;;;70.90;20.43;;;;;;;;;;5018416;28;20061;-69
2022/01/16 03:36:27;;;;;;;51.93;19.03;;;;;;;;;;5021132;28;20021;-69
2022/01/16 03:38:52;;;;;;;58.33;21.73;;;;;;;;;;5026042;28;20030;-70
2022/01/16 03:41:18;;;;;;;70.00;23.77;;;;;;;;;;5026895;28;20116;-70
2022/01/16 03:43:43;;;;;;;74.17;23.70;;;;;;;;;;5019298;28;20040;-69
2022/01/16 03:46:08;;;;;;;58.60;20.33;;;;;;;;;;5028289;28;20060;-69
2022/01/16 03:48:33;;;;;;;55.40;20.00;;;;;;;;;;5020197;28;20132;-68
2022/01/16 03:50:58;;;;;;;56.53;21.27;;;;;;;;;;5023407;28;20160;-71
2022/01/16 03:53:24;;;;;;;57.47;21.38;;;;;;;;;;5024703;28;20481;-69
2022/01/16 03:55:49;;;;;;;59.07;22.27;;;;;;;;;;5023386;28;20017;-70
2022/01/16 03:58:15;;;;;;;53.65;20.63;;;;;;;;;;5018714;28;20033;-70
2022/01/16 04:00:40;;;;;;;64.17;21.20;;;;;;;;;;5024766;28;20072;-69
2022/01/16 04:03:06;;;;;;;53.95;20.90;;;;;;;;;;5026261;28;20033;-70
2022/01/16 04:05:31;;;;;;;60.77;20.33;;;;;;;;;;5026764;28;20041;-70
2022/01/16 04:07:58;;;;;;;60.92;22.65;;;;;;;;;;5027183;28;20068;-70
2022/01/16 04:10:23;;;;;;;71.97;23.30;;;;;;;;;;5022918;28;20036;-69
2022/01/16 04:12:49;;;;;;;67.53;23.53;;;;;;;;;;5019180;28;20116;-70
2022/01/16 04:17:40;;;;;;;56.60;21.97;;;;;;;;;;5019371;28;20025;-71
2022/01/16 04:20:06;;;;;;;52.80;20.37;;;;;;;;;;5021416;28;20431;-70
2022/01/16 04:22:31;;;;;;;49.43;20.67;;;;;;;;;;5027618;28;20473;-70
2022/01/16 04:24:56;;;;;;;55.87;20.87;;;;;;;;;;5022174;28;20079;-70
2022/01/16 04:27:21;;;;;;;54.20;22.10;;;;;;;;;;5025030;28;20622;-70
2022/01/16 04:29:46;;;;;;;49.13;19.65;;;;;;;;;;5023071;28;20025;-71
2022/01/16 04:32:12;;;;;;;59.50;21.23;;;;;;;;;;5024263;28;20033;-70
2022/01/16 04:34:37;;;;;;;57.23;19.87;;;;;;;;;;5027061;28;20591;-70
2022/01/16 04:37:03;;;;;;;50.83;19.83;;;;;;;;;;5027799;28;20488;-70
2022/01/16 04:39:33;;;;;;;51.43;21.43;;;;;;;;;;5027978;28;20116;-71
2022/01/16 04:44:43;;;;;;;59.30;19.60;;;;;;;;;;5026945;28;20048;-70
2022/01/16 04:47:08;;;;;;;56.57;19.07;;;;;;;;;;5028950;28;20029;-70
2022/01/16 04:49:33;;;;;;;53.07;21.63;;;;;;;;;;5022733;28;20038;-70
2022/01/16 04:51:59;;;;;;;51.97;21.47;;;;;;;;;;5032356;28;20890;-69
2022/01/16 04:54:25;;;;;;;45.87;19.50;;;;;;;;;;5028622;28;20033;-70
2022/01/16 04:56:50;;;;;;;45.47;20.17;;;;;;;;;;5024516;28;20021;-69
2022/01/16 04:59:15;;;;;;;43.93;19.20;;;;;;;;;;5031078;28;20029;-71
2022/01/16 05:01:40;;;;;;;44.13;19.77;;;;;;;;;;5014584;28;20065;-70
2022/01/16 05:04:05;;;;;;;50.37;20.77;;;;;;;;;;5029402;28;20524;-70
2022/01/16 05:06:31;;;;;;;54.57;22.77;;;;;;;;;;5023691;28;20073;-70
2022/01/16 05:08:56;;;;;;;49.73;20.77;;;;;;;;;;5024360;28;20041;-70
2022/01/16 05:11:25;;;;;;;49.43;21.13;;;;;;;;;;5024692;28;20083;-71
2022/01/16 05:16:35;;;;;;;60.57;25.23;;;;;;;;;;5028206;28;20021;-70
2022/01/16 05:19:02;;;;;;;54.23;24.73;;;;;;;;;;5019872;28;20040;-69
2022/01/16 05:21:27;;;;;;;53.43;23.87;;;;;;;;;;5032718;28;20792;-71
2022/01/16 05:23:52;;;;;;;58.83;25.77;;;;;;;;;;5024621;28;20022;-70
2022/01/16 05:26:21;;;;;;;53.13;25.27;;;;;;;;;;5024043;28;20045;-70
2022/01/16 05:28:46;;;;;;;59.90;26.20;;;;;;;;;;5028466;28;20029;-71
2022/01/16 05:31:11;;;;;;;53.90;24.43;;;;;;;;;;5025929;28;20101;-70
2022/01/16 05:33:36;;;;;;;57.87;27.20;;;;;;;;;;5019005;28;20051;-70
2022/01/16 05:36:02;;;;;;;55.40;26.10;;;;;;;;;;5025729;28;20029;-69
2022/01/16 05:38:27;;;;;;;55.47;25.57;;;;;;;;;;5028083;28;20460;-70
2022/01/16 05:40:52;;;;;;;58.17;26.53;;;;;;;;;;5023830;28;20105;-70
2022/01/16 05:43:17;;;;;;;56.77;26.33;;;;;;;;;;5025658;28;20048;-70
2022/01/16 05:45:43;;;;;;;51.93;24.73;;;;;;;;;;5027203;28;20104;-70
2022/01/16 05:48:08;;;;;;;55.87;27.27;;;;;;;;;;5024725;28;20049;-70
2022/01/16 05:50:33;;;;;;;54.57;27.43;;;;;;;;;;5026051;28;20710;-70
2022/01/16 05:53:02;;;;;;;59.63;28.37;;;;;;;;;;5030433;28;20038;-69
2022/01/16 05:55:31;;;;;;;54.53;26.87;;;;;;;;;;5024201;28;20395;-70
2022/01/16 05:57:56;;;;;;;53.97;27.27;;;;;;;;;;5027884;28;20284;-70
2022/01/16 06:00:21;;;;;;;60.00;31.77;;;;;;;;;;5023313;28;20479;-71
2022/01/16 06:02:46;;;;;;;56.60;28.93;;;;;;;;;;5023838;28;20030;-69
2022/01/16 06:05:12;;;;;;;56.97;29.00;;;;;;;;;;5027034;28;20021;-70
2022/01/16 06:07:38;;;;;;;56.47;29.13;;;;;;;;;;5029390;28;20169;-69
2022/01/16 06:10:04;;;;;;;58.60;29.37;;;;;;;;;;5022326;28;20080;-70
2022/01/16 06:12:29;;;;;;;60.63;29.17;;;;;;;;;;5027678;28;20067;-70
2022/01/16 06:14:54;;;;;;;54.70;29.03;;;;;;;;;;5025695;28;20021;-70
2022/01/16 06:17:19;;;;;;;54.57;28.07;;;;;;;;;;5026438;28;20021;-71
2022/01/16 06:19:45;;;;;;;50.87;27.50;;;;;;;;;;5029029;28;20092;-70
2022/01/16 06:22:10;;;;;;;56.33;28.80;;;;;;;;;;5027830;28;20445;-70
2022/01/16 06:24:35;;;;;;;57.17;28.77;;;;;;;;;;5025441;28;20032;-70
2022/01/16 06:27:00;;;;;;;58.43;29.77;;;;;;;;;;5029186;28;20025;-70
2022/01/16 06:29:25;;;;;;;55.90;29.53;;;;;;;;;;5020367;28;20056;-70
2022/01/16 06:31:51;;;;;;;54.70;29.37;;;;;;;;;;5023810;28;20068;-69
2022/01/16 06:34:16;;;;;;;53.63;29.13;;;;;;;;;;5021568;28;20032;-71
2022/01/16 06:36:41;;;;;;;55.77;29.47;;;;;;;;;;5019988;28;20040;-69
2022/01/16 06:39:08;;;;;;;54.03;27.83;;;;;;;;;;5023352;28;20052;-69
2022/01/16 06:41:33;;;;;;;55.30;29.63;;;;;;;;;;5017487;28;20036;-70
2022/01/16 06:43:58;;;;;;;49.60;26.30;;;;;;;;;;5020485;28;20097;-71
2022/01/16 06:46:24;;;;;;;51.00;27.13;;;;;;;;;;5018752;28;20121;-70
2022/01/16 06:48:49;;;;;;;54.43;27.33;;;;;;;;;;5022153;28;20037;-70
2022/01/16 06:51:18;;;;;;;53.30;29.37;;;;;;;;;;5026147;28;20465;-70
2022/01/16 06:53:43;;;;;;;51.85;28.25;;;;;;;;;;5019754;28;20018;-70
2022/01/16 06:56:08;;;;;;;56.53;27.87;;;;;;;;;;5018492;28;20083;-69
2022/01/16 06:58:33;;;;;;;54.00;28.33;;;;;;;;;;5020193;28;20025;-69
2022/01/16 07:00:59;;;;;;;52.03;28.77;;;;;;;;;;5019558;28;20026;-70
2022/01/16 07:03:24;;;;;;;54.63;28.00;;;;;;;;;;5018929;28;20033;-69
2022/01/16 07:05:49;;;;;;;55.63;28.70;;;;;;;;;;5029895;28;20072;-70
2022/01/16 07:08:14;;;;;;;57.97;29.13;;;;;;;;;;5015802;28;20041;-70
2022/01/16 07:10:40;;;;;;;52.53;28.93;;;;;;;;;;5021196;28;20032;-71
2022/01/16 07:13:05;;;;;;;58.93;30.07;;;;;;;;;;5026713;28;20511;-69
2022/01/16 07:15:30;;;;;;;53.63;27.73;;;;;;;;;;5018699;28;20030;-73
2022/01/16 07:17:55;;;;;;;55.20;28.40;;;;;;;;;;5027670;28;20033;-71
2022/01/16 07:20:21;;;;;;;49.60;26.43;;;;;;;;;;5025627;28;20021;-70
2022/01/16 07:22:46;;;;;;;55.30;28.67;;;;;;;;;;5023597;28;20096;-70
2022/01/16 07:25:12;;;;;;;51.10;27.63;;;;;;;;;;5027155;28;20072;-70
2022/01/16 07:27:37;;;;;;;54.27;27.37;;;;;;;;;;5025891;28;20400;-70
2022/01/16 07:30:03;;;;;;;49.07;26.83;;;;;;;;;;5024324;28;20029;-70
2022/01/16 07:32:28;;;;;;;54.00;28.63;;;;;;;;;;5029411;28;20029;-70
2022/01/16 07:34:53;;;;;;;52.13;27.53;;;;;;;;;;5031542;28;20103;-71
2022/01/16 07:37:19;;;;;;;49.07;27.17;;;;;;;;;;5022476;28;20072;-71
2022/01/16 07:39:44;;;;;;;49.00;26.63;;;;;;;;;;5028696;28;20117;-70
2022/01/16 07:42:09;;;;;;;46.73;25.83;;;;;;;;;;5017421;28;20036;-70
2022/01/16 07:44:34;;;;;;;45.13;26.17;;;;;;;;;;5029111;28;20022;-70
2022/01/16 07:46:59;;;;;;;49.20;26.40;;;;;;;;;;5022588;28;20033;-71
2022/01/16 07:49:25;;;;;;;46.03;26.40;;;;;;;;;;5023277;28;20105;-70
2022/01/16 07:51:50;;;;;;;47.23;25.33;;;;;;;;;;5030872;28;20061;-69
2022/01/16 07:54:15;;;;;;;42.43;24.13;;;;;;;;;;5030735;28;20105;-70
2022/01/16 07:56:40;;;;;;;42.63;23.03;;;;;;;;;;5036353;28;20361;-72
2022/01/16 07:59:05;;;;;;;38.47;23.30;;;;;;;;;;5034180;28;20614;-69
2022/01/16 08:01:31;;;;;;;42.17;23.90;;;;;;;;;;5036067;28;20025;-71
2022/01/16 08:03:56;;;;;;;40.53;23.47;;;;;;;;;;5038102;28;20049;-71
2022/01/16 08:06:21;;;;;;;39.00;22.50;;;;;;;;;;5033452;28;20956;-70
2022/01/16 08:08:46;;;;;;;41.67;24.67;;;;;;;;;;5028408;28;20027;-70
2022/01/16 08:11:12;;;;;;;39.63;22.60;;;;;;;;;;5025426;28;20024;-70
2022/01/16 08:13:38;;;;;;;42.00;24.67;;;;;;;;;;5027889;28;20065;-70
2022/01/16 08:16:03;;;;;;;35.90;21.83;;;;;;;;;;5027833;28;20129;-70
2022/01/16 08:18:29;;;;;;;41.53;22.60;;;;;;;;;;5018789;28;20037;-70
2022/01/16 08:20:54;;;;;;;38.08;21.08;;;;;;;;;;5027970;28;20099;-72
2022/01/16 08:23:19;;;;;;;34.45;21.17;;;;;;;;;;5022466;28;20079;-71
2022/01/16 08:25:44;;;;;;;34.85;20.48;;;;;;;;;;5022525;28;20021;-71
2022/01/16 08:28:09;;;;;;;33.10;19.77;;;;;;;;;;5025441;28;20120;-71
2022/01/16 08:30:34;;;;;;;31.83;18.83;;;;;;;;;;5027873;28;20025;-71
2022/01/16 08:33:00;;;;;;;33.67;18.77;;;;;;;;;;5024433;28;20070;-70
2022/01/16 08:35:25;;;;;;;34.90;19.58;;;;;;;;;;5027954;28;20477;-69
2022/01/16 08:37:50;;;;;;;32.63;18.58;;;;;;;;;;5021896;28;20409;-69
2022/01/16 08:40:15;;;;;;;33.75;18.77;;;;;;;;;;5030422;28;20026;-71
2022/01/16 08:42:41;;;;;;;32.53;18.23;;;;;;;;;;5019301;28;20036;-69
2022/01/16 08:45:07;;;;;;;30.20;17.50;;;;;;;;;;5026299;28;20026;-71
2022/01/16 08:47:32;;;;;;;29.25;16.63;;;;;;;;;;5019583;28;20064;-69
2022/01/16 08:50:02;;;;;;;30.73;17.45;;;;;;;;;;5015443;28;20030;-70
2022/01/16 08:52:28;;;;;;;27.92;15.98;;;;;;;;;;5015520;28;20112;-70
2022/01/16 08:54:53;;;;;;;27.10;16.25;;;;;;;;;;5028259;28;20387;-63
2022/01/16 08:57:18;;;;;;;29.33;15.98;;;;;;;;;;5027415;28;20227;-63
2022/01/16 08:59:43;;;;;;;29.48;15.95;;;;;;;;;;5024812;28;20079;-63
2022/01/16 09:02:09;;;;;;;25.23;14.70;;;;;;;;;;5027622;28;20026;-64
2022/01/16 09:04:34;;;;;;;25.15;14.85;;;;;;;;;;5026570;28;20033;-65
2022/01/16 09:06:59;;;;;;;26.50;14.98;;;;;;;;;;5020357;28;20072;-64
2022/01/16 09:09:24;;;;;;;23.05;15.25;;;;;;;;;;5027741;28;20132;-65
2022/01/16 09:11:49;;;;;;;27.88;15.05;;;;;;;;;;5025425;28;20103;-64
2022/01/16 09:14:15;;;;;;;26.33;15.80;;;;;;;;;;5021315;28;20438;-64
2022/01/16 09:16:40;;;;;;;25.42;14.45;;;;;;;;;;5021111;28;20027;-64
2022/01/16 09:19:05;;;;;;;24.85;15.38;;;;;;;;;;5020767;28;20025;-66
2022/01/16 09:21:30;;;;;;;23.58;13.68;;;;;;;;;;5018911;28;21794;-64
2022/01/16 09:23:56;;;;;;;26.70;14.15;;;;;;;;;;5029329;28;20028;-64
2022/01/16 09:26:23;;;;;;;22.80;13.75;;;;;;;;;;5016652;28;20116;-64
2022/01/16 09:28:48;;;;;;;25.58;13.77;;;;;;;;;;5028653;28;20469;-65
2022/01/16 09:31:14;;;;;;;23.23;13.52;;;;;;;;;;5029400;28;20028;-65
2022/01/16 09:33:39;;;;;;;24.58;14.30;;;;;;;;;;5025186;28;20017;-64
2022/01/16 09:36:04;;;;;;;23.83;13.98;;;;;;;;;;5027083;28;20480;-64
2022/01/16 09:38:30;;;;;;;25.70;14.63;;;;;;;;;;5027652;28;20037;-67
2022/01/16 09:40:55;;;;;;;24.13;14.07;;;;;;;;;;5029140;28;20033;-65
2022/01/16 09:43:21;;;;;;;23.95;15.10;;;;;;;;;;5030475;28;20029;-65
2022/01/16 09:45:46;;;;;;;25.00;13.48;;;;;;;;;;5028995;28;20109;-67
2022/01/16 09:48:11;;;;;;;23.80;13.57;;;;;;;;;;5022830;28;20120;-66
2022/01/16 09:50:36;;;;;;;21.50;12.63;;;;;;;;;;5028154;28;20029;-66
2022/01/16 09:53:02;;;;;;;20.50;12.43;;;;;;;;;;5032299;28;20384;-66
2022/01/16 09:55:27;;;;;;;21.17;12.10;;;;;;;;;;5030689;28;20083;-65
2022/01/16 09:57:54;;;;;;;20.75;11.77;;;;;;;;;;5025803;28;20121;-66
2022/01/16 10:00:20;;;;;;;20.63;12.38;;;;;;;;;;5020008;28;20541;-66
2022/01/16 10:02:45;;;;;;;19.73;11.23;;;;;;;;;;5020852;28;20117;-66
2022/01/16 10:05:30;;;;;;;21.65;12.85;;;;;;;;;;5029326;28;20100;-66
2022/01/16 10:07:57;;;;;;;21.98;12.70;;;;;;;;;;5029555;28;20197;-65
2022/01/16 10:10:27;;;;;;;22.88;13.32;;;;;;;;;;5030797;28;20013;-66
2022/01/16 10:12:54;;;;;;;23.45;12.48;;;;;;;;;;5028691;28;20156;-66
2022/01/16 10:15:27;;;;;;;21.40;12.35;;;;;;;;;;5027755;28;20021;-65
2022/01/16 10:17:56;;;;;;;21.75;12.40;;;;;;;;;;5022956;28;20038;-67
2022/01/16 10:20:22;;;;;;;21.08;11.32;;;;;;;;;;5020917;28;20040;-66
2022/01/16 10:22:51;;;;;;;23.20;12.68;;;;;;;;;;5028496;28;20025;-65
2022/01/16 10:25:17;;;;;;;23.05;12.13;;;;;;;;;;5029962;28;20498;-65
2022/01/16 10:27:44;;;;;;;21.92;13.00;;;;;;;;;;5027454;28;20045;-65
2022/01/16 10:30:12;;;;;;;21.35;12.32;;;;;;;;;;5025559;28;20016;-66
2022/01/16 10:32:42;;;;;;;21.02;12.70;;;;;;;;;;5025755;28;20037;-66
2022/01/16 10:35:33;;;;;;;22.88;13.18;;;;;;;;;;5025678;28;20017;-65
2022/01/16 10:37:59;;;;;;;22.20;12.32;;;;;;;;;;5025485;28;20041;-65
2022/01/16 10:40:30;;;;;;;21.90;12.68;;;;;;;;;;5027950;28;20777;-65
2022/01/16 10:42:57;;;;;;;20.65;11.70;;;;;;;;;;5018878;28;20033;-65
2022/01/16 10:45:24;;;;;;;20.05;12.35;;;;;;;;;;5027492;28;20052;-65
2022/01/16 10:47:57;;;;;;;19.38;11.18;;;;;;;;;;5026921;28;20037;-65
2022/01/16 10:50:26;;;;;;;21.85;12.18;;;;;;;;;;5028832;28;20024;-66
2022/01/16 10:53:07;;;;;;;19.80;11.30;;;;;;;;;;5029093;28;20108;-66
2022/01/16 10:55:49;;;;;;;19.63;11.02;;;;;;;;;;5023311;28;20026;-66
2022/01/16 10:58:18;;;;;;;20.65;11.40;;;;;;;;;;5022807;28;20385;-65
2022/01/16 11:00:52;;;;;;;19.50;11.50;;;;;;;;;;5025953;28;20056;-65
2022/01/16 11:03:17;;;;;;;20.67;10.60;;;;;;;;;;5024536;28;20393;-67
2022/01/16 11:05:43;;;;;;;21.25;11.80;;;;;;;;;;5025141;28;20063;-66
2022/01/16 11:08:13;;;;;;;23.15;11.68;;;;;;;;;;5028716;28;20034;-65
2022/01/16 11:10:39;;;;;;;18.63;11.25;;;;;;;;;;5027944;28;20033;-67
2022/01/16 11:13:05;;;;;;;19.48;10.95;;;;;;;;;;5026728;28;20037;-66
2022/01/16 11:15:31;;;;;;;19.20;10.77;;;;;;;;;;5026910;28;20036;-65
2022/01/16 11:17:57;;;;;;;19.67;11.80;;;;;;;;;;5026594;28;20055;-66
2022/01/16 11:20:28;;;;;;;20.10;11.55;;;;;;;;;;5020462;28;20018;-66
2022/01/16 11:25:33;;;;;;;21.85;11.00;;;;;;;;;;5020845;28;20033;-66
2022/01/16 11:28:00;;;;;;;20.00;10.93;;;;;;;;;;5027049;28;20068;-65
2022/01/16 11:30:26;;;;;;;20.08;11.05;;;;;;;;;;5025043;28;20022;-66
2022/01/16 11:32:51;;;;;;;19.83;10.93;;;;;;;;;;5024457;28;20040;-66
2022/01/16 11:35:17;;;;;;;19.30;11.32;;;;;;;;;;5024043;28;20045;-65
2022/01/16 11:37:42;;;;;;;18.75;10.63;;;;;;;;;;5031670;28;20041;-66
2022/01/16 11:40:27;;;;;;;16.90;10.50;;;;;;;;;;5023779;28;20495;-66
2022/01/16 11:43:10;;;;;;;18.33;11.05;;;;;;;;;;5022488;28;20096;-66
2022/01/16 11:45:49;;;;;;;17.67;10.10;;;;;;;;;;5021433;28;20042;-66
2022/01/16 11:48:18;;;;;;;19.70;10.70;;;;;;;;;;5023052;28;20826;-66
2022/01/16 11:50:43;;;;;;;20.33;10.90;;;;;;;;;;5023608;28;20024;-67
2022/01/16 11:53:08;;;;;;;20.80;11.13;;;;;;;;;;5021321;28;20025;-66
2022/01/16 11:55:34;;;;;;;18.40;10.80;;;;;;;;;;5025482;28;20032;-66
2022/01/16 11:58:00;;;;;;;20.85;11.27;;;;;;;;;;5024074;28;20030;-66
2022/01/16 12:00:40;;;;;;;20.70;10.77;;;;;;;;;;5020649;28;20445;-66
2022/01/16 12:03:25;;;;;;;19.05;10.60;;;;;;;;;;5026589;28;20044;-66
2022/01/16 12:05:52;;;;;;;17.50;10.75;;;;;;;;;;5025525;28;20128;-67
2022/01/16 12:08:32;;;;;;;17.85;10.50;;;;;;;;;;5030341;28;20128;-66
2022/01/16 12:10:58;;;;;;;19.63;10.43;;;;;;;;;;5026368;28;20065;-67
2022/01/16 12:13:42;;;;;;;16.77;10.65;;;;;;;;;;5026103;28;20162;-66
2022/01/16 12:16:26;;;;;;;17.58;10.13;;;;;;;;;;5025928;28;20033;-66
2022/01/16 12:18:51;;;;;;;19.25;11.00;;;;;;;;;;5016608;28;20029;-66
2022/01/16 12:21:29;;;;;;;18.75;10.85;;;;;;;;;;5026796;28;20044;-66
2022/01/16 12:23:54;;;;;;;18.50;10.60;;;;;;;;;;5028439;28;20028;-65
2022/01/16 12:26:34;;;;;;;19.63;11.38;;;;;;;;;;5023589;28;20108;-67
2022/01/16 12:29:00;;;;;;;18.45;11.43;;;;;;;;;;5027876;28;20045;-67
2022/01/16 12:31:34;;;;;;;17.92;10.60;;;;;;;;;;5022939;28;20081;-67
2022/01/16 12:34:01;;;;;;;19.38;10.30;;;;;;;;;;5019903;28;20029;-66
2022/01/16 12:36:33;;;;;;;18.50;10.23;;;;;;;;;;5022891;28;20129;-66
2022/01/16 12:38:58;;;;;;;19.85;10.57;;;;;;;;;;5026722;28;20033;-66
2022/01/16 12:41:25;;;;;;;18.44;10.76;;;;;;;;;;5021501;28;20116;-67
2022/01/16 12:44:01;;;;;;;18.88;10.93;;;;;;;;;;5025621;28;20060;-68
2022/01/16 12:46:28;;;;;;;19.58;10.77;;;;;;;;;;5021497;28;20550;-67
2022/01/16 12:48:55;;;;;;;17.42;10.23;;;;;;;;;;5021433;28;20033;-66
2022/01/16 12:51:22;;;;;;;18.60;10.02;;;;;;;;;;5027069;28;20022;-67
2022/01/16 12:53:49;;;;;;;18.02;10.25;;;;;;;;;;5023938;28;20059;-68
2022/01/16 12:56:23;;;;;;;16.90;10.25;;;;;;;;;;5027024;28;20509;-68
2022/01/16 12:58:50;;;;;;;17.02;10.15;;;;;;;;;;5024623;28;20013;-68
2022/01/16 13:01:15;;;;;;;17.83;9.63;;;;;;;;;;5029027;28;20028;-67
2022/01/16 13:03:43;;;;;;;18.23;10.27;;;;;;;;;;5029532;28;20116;-68
2022/01/16 13:06:27;;;;;;;17.88;10.05;;;;;;;;;;5021547;28;20080;-66
2022/01/16 13:09:06;;;;;;;15.93;10.02;;;;;;;;;;5027682;28;20431;-67
2022/01/16 13:11:34;;;;;;;18.55;9.82;;;;;;;;;;5035638;28;20031;-67
2022/01/16 13:13:59;;;;;;;18.35;10.82;;;;;;;;;;5038304;28;20044;-67
2022/01/16 13:16:29;;;;;;;17.55;10.73;;;;;;;;;;5026372;28;20068;-67
2022/01/16 13:18:57;;;;;;;19.08;9.85;;;;;;;;;;5030355;28;20088;-67
2022/01/16 13:21:31;;;;;;;18.52;10.38;;;;;;;;;;5029669;28;20103;-68
2022/01/16 13:23:57;;;;;;;17.88;10.45;;;;;;;;;;5030644;28;20025;-66
2022/01/16 13:26:29;;;;;;;16.17;9.60;;;;;;;;;;5031503;28;20025;-67
2022/01/16 13:29:04;;;;;;;15.65;9.75;;;;;;;;;;5030961;28;20029;-67
2022/01/16 13:31:29;;;;;;;17.75;10.00;;;;;;;;;;5028908;28;20079;-68
2022/01/16 13:34:11;;;;;;;15.15;9.00;;;;;;;;;;5029647;28;20112;-68
2022/01/16 13:36:36;;;;;;;18.27;9.60;;;;;;;;;;5025840;28;20025;-67
2022/01/16 13:39:03;;;;;;;16.58;9.80;;;;;;;;;;5022163;28;20478;-67
2022/01/16 13:41:28;;;;;;;15.77;9.02;;;;;;;;;;5025914;28;20017;-67
2022/01/16 13:43:53;;;;;;;14.82;8.75;;;;;;;;;;5031015;28;20032;-67
2022/01/16 13:46:18;;;;;;;14.90;9.35;;;;;;;;;;5026837;28;20563;-68
2022/01/16 13:48:44;;;;;;;15.98;9.38;;;;;;;;;;5025979;28;20750;-67
2022/01/16 13:51:09;;;;;;;15.25;9.18;;;;;;;;;;5024772;28;20053;-67
2022/01/16 13:53:37;;;;;;;14.98;9.15;;;;;;;;;;5037748;28;20433;-67
2022/01/16 13:56:03;;;;;;;17.45;9.52;;;;;;;;;;5030865;28;20026;-67
2022/01/16 13:58:30;;;;;;;17.55;9.48;;;;;;;;;;5024430;28;20033;-67
2022/01/16 14:01:00;;;;;;;15.45;9.60;;;;;;;;;;5026833;28;20033;-66
2022/01/16 14:03:26;;;;;;;19.25;9.35;;;;;;;;;;5025277;28;20395;-66
2022/01/16 14:05:53;;;;;;;16.42;8.60;;;;;;;;;;5031024;28;20045;-68
2022/01/16 14:08:18;;;;;;;16.10;9.45;;;;;;;;;;5026390;28;20037;-67
2022/01/16 14:10:43;;;;;;;14.32;8.85;;;;;;;;;;5019137;28;20037;-68
2022/01/16 14:13:10;;;;;;;15.30;9.13;;;;;;;;;;5018451;28;20034;-69
2022/01/16 14:15:36;;;;;;;16.05;9.85;;;;;;;;;;5016351;28;20473;-67
2022/01/16 14:18:07;;;;;;;16.17;9.45;;;;;;;;;;5016297;28;20033;-68
2022/01/16 14:20:47;;;;;;;13.75;8.68;;;;;;;;;;5020980;28;20022;-68
2022/01/16 14:23:12;;;;;;;16.95;9.30;;;;;;;;;;5021374;28;20033;-67
2022/01/16 14:25:38;;;;;;;15.75;9.27;;;;;;;;;;5024771;28;20500;-68
2022/01/16 14:28:03;;;;;;;14.43;8.95;;;;;;;;;;5026812;28;20029;-66
2022/01/16 14:30:28;;;;;;;15.50;9.38;;;;;;;;;;5025917;28;20025;-68
2022/01/16 14:32:53;;;;;;;14.63;8.82;;;;;;;;;;5028007;28;20036;-68
2022/01/16 14:35:20;;;;;;;14.68;9.43;;;;;;;;;;5018291;28;20036;-67
2022/01/16 14:37:45;;;;;;;15.98;9.48;;;;;;;;;;5024299;28;20048;-68
2022/01/16 14:40:10;;;;;;;15.07;9.35;;;;;;;;;;5025258;28;20022;-68
2022/01/16 14:42:38;;;;;;;19.25;9.90;;;;;;;;;;5028845;28;20049;-68
2022/01/16 14:45:05;;;;;;;18.60;9.30;;;;;;;;;;5022449;28;20034;-68
2022/01/16 14:47:30;;;;;;;16.90;10.23;;;;;;;;;;5031490;28;20033;-68
2022/01/16 14:49:55;;;;;;;15.38;9.77;;;;;;;;;;5029799;28;20032;-67
2022/01/16 14:52:21;;;;;;;17.35;10.38;;;;;;;;;;5030464;28;20030;-68
2022/01/16 14:54:47;;;;;;;14.65;9.63;;;;;;;;;;5029987;28;20233;-68
2022/01/16 14:57:12;;;;;;;18.95;10.50;;;;;;;;;;5028812;28;20271;-68
2022/01/16 14:59:38;;;;;;;16.55;9.52;;;;;;;;;;5024316;28;20025;-68
2022/01/16 15:02:03;;;;;;;18.45;10.63;;;;;;;;;;5025020;28;20075;-68
2022/01/16 15:04:28;;;;;;;17.60;10.60;;;;;;;;;;5028103;28;20444;-68